createdAt,value
2016-08-22T16:11:56.480Z,75.98
2016-08-22T16:12:10.438Z,75.7
2016-08-22T16:12:24.170Z,75.98
2016-08-22T16:12:37.183Z,75.79
2016-08-22T16:12:51.267Z,75.6
2016-08-22T16:13:05.339Z,75.79
2016-08-22T16:13:19.185Z,75.98
2016-08-22T16:13:32.208Z,76.95
2016-08-22T16:13:45.379Z,76.62
2016-08-22T16:13:57.237Z,76.66
2016-08-22T16:15:06.310Z,77.24
2016-08-22T16:15:18.554Z,77.05
2016-08-22T16:15:30.783Z,76.14
2016-08-22T16:15:42.959Z,75.85
2016-08-22T16:15:54.663Z,75.79
2016-08-22T16:16:07.574Z,76.04
2016-08-22T16:16:19.044Z,76.95
2016-08-22T16:16:30.499Z,76.62
2016-08-22T16:16:41.937Z,76.76
2016-08-22T16:16:54.841Z,76.91
2016-08-22T16:17:06.310Z,76.76
2016-08-22T16:17:17.809Z,76.95
2016-08-22T16:17:30.064Z,76.86
2016-08-22T16:17:42.980Z,76.95
2016-08-22T16:17:54.410Z,76.95
2016-08-22T16:18:07.314Z,76.86
2016-08-22T16:18:19.481Z,76.95
2016-08-22T16:18:33.126Z,77.05
2016-08-22T16:18:45.357Z,76.82
2016-08-22T16:18:57.763Z,77.3
2016-08-22T16:19:10.678Z,77.3
2016-08-22T16:19:22.854Z,78.17
2016-08-22T16:19:35.033Z,77.69
2016-08-22T16:19:47.206Z,77.98
2016-08-22T16:20:00.124Z,77.78
2016-08-22T16:20:12.274Z,77.78
2016-08-22T16:20:24.476Z,77.98
2016-08-22T16:20:37.384Z,77.78
2016-08-22T16:20:50.311Z,77.69
2016-08-22T16:21:03.964Z,77.5
2016-08-22T16:21:15.450Z,77.98
2016-08-22T16:21:27.628Z,77.59
2016-08-22T16:21:40.535Z,77.34
2016-08-22T16:21:52.700Z,77.63
